sensor_id;sensor_type;location;lat;lon;timestamp;P1;durP1;ratioP1;P2;durP2;ratioP2
11151;SDS011;5630;49.342;10.802;2023-04-20T00:00:12;9.63;;;6.83;;
11151;SDS011;5630;49.342;10.802;2023-04-20T00:02:41;9.07;;;6.87;;
11151;SDS011;5630;49.342;10.802;2023-04-20T00:05:07;11.47;;;7.00;;
11151;SDS011;5630;49.342;10.802;2023-04-20T00:07:34;8.73;;;6.30;;
11151;SDS011;5630;49.342;10.802;2023-04-20T00:10:00;8.53;;;6.73;;
11151;SDS011;5630;49.342;10.802;2023-04-20T00:12:27;10.97;;;7.13;;
11151;SDS011;5630;49.342;10.802;2023-04-20T00:14:53;10.33;;;6.50;;
11151;SDS011;5630;49.342;10.802;2023-04-20T00:17:18;10.80;;;6.40;;
11151;SDS011;5630;49.342;10.802;2023-04-20T00:19:44;10.50;;;6.80;;
11151;SDS011;5630;49.342;10.802;2023-04-20T00:22:10;8.27;;;5.97;;
11151;SDS011;5630;49.342;10.802;2023-04-20T00:24:36;7.17;;;6.07;;
11151;SDS011;5630;49.342;10.802;2023-04-20T00:27:01;7.13;;;5.63;;
11151;SDS011;5630;49.342;10.802;2023-04-20T00:29:27;10.00;;;5.80;;
11151;SDS011;5630;49.342;10.802;2023-04-20T00:31:52;7.43;;;6.20;;
11151;SDS011;5630;49.342;10.802;2023-04-20T00:34:18;7.80;;;5.63;;
11151;SDS011;5630;49.342;10.802;2023-04-20T00:36:44;6.63;;;5.47;;
11151;SDS011;5630;49.342;10.802;2023-04-20T00:39:09;10.73;;;6.03;;
11151;SDS011;5630;49.342;10.802;2023-04-20T00:41:35;9.43;;;7.00;;
11151;SDS011;5630;49.342;10.802;2023-04-20T00:44:00;7.77;;;6.40;;
11151;SDS011;5630;49.342;10.802;2023-04-20T00:46:26;8.07;;;6.40;;
11151;SDS011;5630;49.342;10.802;2023-04-20T00:48:52;7.93;;;6.10;;
11151;SDS011;5630;49.342;10.802;2023-04-20T00:51:19;8.80;;;6.30;;
11151;SDS011;5630;49.342;10.802;2023-04-20T00:53:45;6.67;;;5.97;;
11151;SDS011;5630;49.342;10.802;2023-04-20T00:56:14;8.50;;;6.33;;
11151;SDS011;5630;49.342;10.802;2023-04-20T00:58:43;9.07;;;6.70;;
11151;SDS011;5630;49.342;10.802;2023-04-20T01:01:11;9.60;;;6.83;;
11151;SDS011;5630;49.342;10.802;2023-04-20T01:03:37;8.68;;;6.10;;
11151;SDS011;5630;49.342;10.802;2023-04-20T01:06:04;7.90;;;6.00;;
11151;SDS011;5630;49.342;10.802;2023-04-20T01:08:30;8.10;;;6.35;;
11151;SDS011;5630;49.342;10.802;2023-04-20T01:10:56;11.17;;;6.00;;
11151;SDS011;5630;49.342;10.802;2023-04-20T01:13:21;7.00;;;5.90;;
11151;SDS011;5630;49.342;10.802;2023-04-20T01:15:47;6.83;;;5.70;;
11151;SDS011;5630;49.342;10.802;2023-04-20T01:18:13;6.83;;;5.47;;
11151;SDS011;5630;49.342;10.802;2023-04-20T01:20:39;7.43;;;5.90;;
11151;SDS011;5630;49.342;10.802;2023-04-20T01:23:05;7.60;;;6.67;;
11151;SDS011;5630;49.342;10.802;2023-04-20T01:25:30;8.37;;;5.90;;
11151;SDS011;5630;49.342;10.802;2023-04-20T01:27:56;10.67;;;5.90;;
11151;SDS011;5630;49.342;10.802;2023-04-20T01:30:22;8.73;;;6.23;;
11151;SDS011;5630;49.342;10.802;2023-04-20T01:32:47;10.27;;;6.27;;
11151;SDS011;5630;49.342;10.802;2023-04-20T01:35:13;7.23;;;5.90;;
11151;SDS011;5630;49.342;10.802;2023-04-20T01:37:39;8.95;;;6.10;;
11151;SDS011;5630;49.342;10.802;2023-04-20T01:40:07;7.17;;;5.60;;
11151;SDS011;5630;49.342;10.802;2023-04-20T01:42:34;6.15;;;5.35;;
11151;SDS011;5630;49.342;10.802;2023-04-20T01:45:00;8.00;;;5.97;;
11151;SDS011;5630;49.342;10.802;2023-04-20T01:47:25;6.23;;;5.00;;
11151;SDS011;5630;49.342;10.802;2023-04-20T01:49:51;8.87;;;5.80;;
11151;SDS011;5630;49.342;10.802;2023-04-20T01:52:16;7.97;;;5.30;;
11151;SDS011;5630;49.342;10.802;2023-04-20T01:54:42;8.47;;;6.00;;
11151;SDS011;5630;49.342;10.802;2023-04-20T01:57:07;6.10;;;5.50;;
11151;SDS011;5630;49.342;10.802;2023-04-20T01:59:33;6.90;;;5.93;;
11151;SDS011;5630;49.342;10.802;2023-04-20T02:01:59;9.27;;;6.03;;
11151;SDS011;5630;49.342;10.802;2023-04-20T02:04:24;7.77;;;5.27;;
11151;SDS011;5630;49.342;10.802;2023-04-20T02:06:50;6.70;;;5.67;;
11151;SDS011;5630;49.342;10.802;2023-04-20T02:09:15;8.83;;;5.97;;
11151;SDS011;5630;49.342;10.802;2023-04-20T02:11:41;8.50;;;5.93;;
11151;SDS011;5630;49.342;10.802;2023-04-20T02:14:07;8.17;;;6.10;;
11151;SDS011;5630;49.342;10.802;2023-04-20T02:16:32;10.53;;;6.07;;
11151;SDS011;5630;49.342;10.802;2023-04-20T02:18:59;8.23;;;6.37;;
11151;SDS011;5630;49.342;10.802;2023-04-20T02:21:25;8.60;;;5.97;;
11151;SDS011;5630;49.342;10.802;2023-04-20T02:23:51;8.23;;;5.97;;
11151;SDS011;5630;49.342;10.802;2023-04-20T02:26:17;8.10;;;6.00;;
11151;SDS011;5630;49.342;10.802;2023-04-20T02:28:43;9.33;;;6.13;;
11151;SDS011;5630;49.342;10.802;2023-04-20T02:31:08;9.90;;;6.90;;
11151;SDS011;5630;49.342;10.802;2023-04-20T02:33:34;10.47;;;6.73;;
11151;SDS011;5630;49.342;10.802;2023-04-20T02:35:59;10.23;;;6.77;;
11151;SDS011;5630;49.342;10.802;2023-04-20T02:38:25;8.60;;;6.53;;
11151;SDS011;5630;49.342;10.802;2023-04-20T02:40:51;10.20;;;6.40;;
11151;SDS011;5630;49.342;10.802;2023-04-20T02:43:16;9.77;;;7.07;;
11151;SDS011;5630;49.342;10.802;2023-04-20T02:45:42;10.30;;;6.67;;
11151;SDS011;5630;49.342;10.802;2023-04-20T02:48:07;8.53;;;6.70;;
11151;SDS011;5630;49.342;10.802;2023-04-20T02:50:33;8.03;;;6.97;;
11151;SDS011;5630;49.342;10.802;2023-04-20T02:52:59;7.67;;;6.87;;
11151;SDS011;5630;49.342;10.802;2023-04-20T02:55:24;10.17;;;7.50;;
11151;SDS011;5630;49.342;10.802;2023-04-20T02:57:51;9.98;;;6.88;;
11151;SDS011;5630;49.342;10.802;2023-04-20T03:00:16;11.23;;;7.23;;
11151;SDS011;5630;49.342;10.802;2023-04-20T03:02:42;10.77;;;6.87;;
11151;SDS011;5630;49.342;10.802;2023-04-20T03:05:08;10.00;;;7.30;;
11151;SDS011;5630;49.342;10.802;2023-04-20T03:07:33;10.20;;;7.50;;
11151;SDS011;5630;49.342;10.802;2023-04-20T03:09:59;11.33;;;8.03;;
11151;SDS011;5630;49.342;10.802;2023-04-20T03:12:25;10.60;;;7.73;;
11151;SDS011;5630;49.342;10.802;2023-04-20T03:14:50;12.03;;;7.77;;
11151;SDS011;5630;49.342;10.802;2023-04-20T03:17:16;10.97;;;6.73;;
11151;SDS011;5630;49.342;10.802;2023-04-20T03:19:41;11.47;;;6.83;;
11151;SDS011;5630;49.342;10.802;2023-04-20T03:22:07;10.17;;;7.27;;
11151;SDS011;5630;49.342;10.802;2023-04-20T03:24:33;11.17;;;7.13;;
11151;SDS011;5630;49.342;10.802;2023-04-20T03:26:58;10.30;;;7.10;;
11151;SDS011;5630;49.342;10.802;2023-04-20T03:29:24;10.90;;;7.50;;
11151;SDS011;5630;49.342;10.802;2023-04-20T03:31:49;8.07;;;6.50;;
11151;SDS011;5630;49.342;10.802;2023-04-20T03:34:15;10.03;;;7.23;;
11151;SDS011;5630;49.342;10.802;2023-04-20T03:36:40;10.33;;;7.00;;
11151;SDS011;5630;49.342;10.802;2023-04-20T03:39:06;12.70;;;7.27;;
11151;SDS011;5630;49.342;10.802;2023-04-20T03:41:32;9.57;;;7.23;;
11151;SDS011;5630;49.342;10.802;2023-04-20T03:43:58;12.63;;;8.17;;
11151;SDS011;5630;49.342;10.802;2023-04-20T03:46:23;9.33;;;7.73;;
11151;SDS011;5630;49.342;10.802;2023-04-20T03:48:49;12.47;;;7.63;;
11151;SDS011;5630;49.342;10.802;2023-04-20T03:51:15;10.53;;;8.27;;
11151;SDS011;5630;49.342;10.802;2023-04-20T03:53:40;12.07;;;7.77;;
11151;SDS011;5630;49.342;10.802;2023-04-20T03:56:06;11.23;;;7.83;;
11151;SDS011;5630;49.342;10.802;2023-04-20T03:58:31;11.07;;;8.47;;
11151;SDS011;5630;49.342;10.802;2023-04-20T04:01:01;9.77;;;7.67;;
11151;SDS011;5630;49.342;10.802;2023-04-20T04:03:28;10.05;;;8.20;;
11151;SDS011;5630;49.342;10.802;2023-04-20T04:05:53;10.90;;;8.53;;
11151;SDS011;5630;49.342;10.802;2023-04-20T04:08:19;11.00;;;7.60;;
11151;SDS011;5630;49.342;10.802;2023-04-20T04:10:45;12.07;;;8.17;;
11151;SDS011;5630;49.342;10.802;2023-04-20T04:13:10;10.87;;;8.17;;
11151;SDS011;5630;49.342;10.802;2023-04-20T04:15:36;12.03;;;8.37;;
11151;SDS011;5630;49.342;10.802;2023-04-20T04:18:01;10.47;;;8.30;;
11151;SDS011;5630;49.342;10.802;2023-04-20T04:20:27;8.67;;;7.53;;
11151;SDS011;5630;49.342;10.802;2023-04-20T04:22:52;13.23;;;8.70;;
11151;SDS011;5630;49.342;10.802;2023-04-20T04:25:18;11.00;;;8.53;;
11151;SDS011;5630;49.342;10.802;2023-04-20T04:27:44;11.77;;;8.40;;
11151;SDS011;5630;49.342;10.802;2023-04-20T04:30:10;14.52;;;9.05;;
11151;SDS011;5630;49.342;10.802;2023-04-20T04:32:37;13.23;;;8.70;;
11151;SDS011;5630;49.342;10.802;2023-04-20T04:35:03;12.73;;;8.00;;
11151;SDS011;5630;49.342;10.802;2023-04-20T04:37:29;16.03;;;8.80;;
11151;SDS011;5630;49.342;10.802;2023-04-20T04:39:54;12.13;;;8.73;;
11151;SDS011;5630;49.342;10.802;2023-04-20T04:42:22;15.90;;;8.75;;
11151;SDS011;5630;49.342;10.802;2023-04-20T04:44:48;12.55;;;8.25;;
11151;SDS011;5630;49.342;10.802;2023-04-20T04:47:16;10.50;;;8.48;;
11151;SDS011;5630;49.342;10.802;2023-04-20T04:49:43;10.95;;;8.45;;
11151;SDS011;5630;49.342;10.802;2023-04-20T04:52:09;10.73;;;8.30;;
11151;SDS011;5630;49.342;10.802;2023-04-20T04:54:35;11.40;;;8.70;;
11151;SDS011;5630;49.342;10.802;2023-04-20T04:57:01;11.63;;;8.73;;
11151;SDS011;5630;49.342;10.802;2023-04-20T04:59:26;9.82;;;8.40;;
11151;SDS011;5630;49.342;10.802;2023-04-20T05:01:52;12.07;;;8.43;;
11151;SDS011;5630;49.342;10.802;2023-04-20T05:04:18;9.43;;;8.40;;
11151;SDS011;5630;49.342;10.802;2023-04-20T05:06:44;14.65;;;9.27;;
11151;SDS011;5630;49.342;10.802;2023-04-20T05:09:09;10.67;;;8.70;;
11151;SDS011;5630;49.342;10.802;2023-04-20T05:11:35;14.53;;;9.67;;
11151;SDS011;5630;49.342;10.802;2023-04-20T05:14:01;11.13;;;9.00;;
11151;SDS011;5630;49.342;10.802;2023-04-20T05:16:27;13.60;;;8.52;;
11151;SDS011;5630;49.342;10.802;2023-04-20T05:18:53;10.40;;;8.13;;
11151;SDS011;5630;49.342;10.802;2023-04-20T05:21:18;11.10;;;9.10;;
11151;SDS011;5630;49.342;10.802;2023-04-20T05:23:44;11.17;;;8.47;;
11151;SDS011;5630;49.342;10.802;2023-04-20T05:26:10;12.40;;;9.00;;
11151;SDS011;5630;49.342;10.802;2023-04-20T05:28:35;10.53;;;8.83;;
11151;SDS011;5630;49.342;10.802;2023-04-20T05:31:01;7.87;;;7.07;;
11151;SDS011;5630;49.342;10.802;2023-04-20T05:33:26;9.30;;;8.40;;
11151;SDS011;5630;49.342;10.802;2023-04-20T05:35:55;10.33;;;7.80;;
11151;SDS011;5630;49.342;10.802;2023-04-20T05:38:21;7.60;;;6.83;;
11151;SDS011;5630;49.342;10.802;2023-04-20T05:40:47;10.33;;;6.33;;
11151;SDS011;5630;49.342;10.802;2023-04-20T05:43:13;6.90;;;5.70;;
11151;SDS011;5630;49.342;10.802;2023-04-20T05:45:38;6.43;;;5.47;;
11151;SDS011;5630;49.342;10.802;2023-04-20T05:48:04;7.60;;;5.20;;
11151;SDS011;5630;49.342;10.802;2023-04-20T05:50:30;8.27;;;5.70;;
11151;SDS011;5630;49.342;10.802;2023-04-20T05:52:56;8.00;;;6.77;;
11151;SDS011;5630;49.342;10.802;2023-04-20T05:55:21;6.70;;;6.03;;
11151;SDS011;5630;49.342;10.802;2023-04-20T05:57:47;7.90;;;6.70;;
11151;SDS011;5630;49.342;10.802;2023-04-20T06:00:14;7.03;;;6.27;;
11151;SDS011;5630;49.342;10.802;2023-04-20T06:02:40;7.30;;;6.60;;
11151;SDS011;5630;49.342;10.802;2023-04-20T06:05:07;8.50;;;7.60;;
11151;SDS011;5630;49.342;10.802;2023-04-20T06:07:34;8.57;;;7.67;;
11151;SDS011;5630;49.342;10.802;2023-04-20T06:10:00;8.97;;;7.47;;
11151;SDS011;5630;49.342;10.802;2023-04-20T06:12:26;8.57;;;7.67;;
11151;SDS011;5630;49.342;10.802;2023-04-20T06:14:54;9.90;;;8.90;;
11151;SDS011;5630;49.342;10.802;2023-04-20T06:17:20;9.60;;;8.60;;
11151;SDS011;5630;49.342;10.802;2023-04-20T06:19:45;9.47;;;8.47;;
11151;SDS011;5630;49.342;10.802;2023-04-20T06:22:11;9.70;;;8.70;;
11151;SDS011;5630;49.342;10.802;2023-04-20T06:24:37;12.20;;;9.67;;
11151;SDS011;5630;49.342;10.802;2023-04-20T06:27:06;10.93;;;9.70;;
11151;SDS011;5630;49.342;10.802;2023-04-20T06:29:35;10.20;;;9.07;;
11151;SDS011;5630;49.342;10.802;2023-04-20T06:32:01;14.10;;;9.63;;
11151;SDS011;5630;49.342;10.802;2023-04-20T06:34:27;12.63;;;10.30;;
11151;SDS011;5630;49.342;10.802;2023-04-20T06:36:52;13.87;;;11.67;;
11151;SDS011;5630;49.342;10.802;2023-04-20T06:39:18;14.83;;;11.80;;
11151;SDS011;5630;49.342;10.802;2023-04-20T06:41:44;14.07;;;12.57;;
11151;SDS011;5630;49.342;10.802;2023-04-20T06:44:09;13.47;;;12.03;;
11151;SDS011;5630;49.342;10.802;2023-04-20T06:46:35;13.83;;;12.03;;
11151;SDS011;5630;49.342;10.802;2023-04-20T06:49:01;13.60;;;11.80;;
11151;SDS011;5630;49.342;10.802;2023-04-20T06:51:27;14.10;;;12.60;;
11151;SDS011;5630;49.342;10.802;2023-04-20T06:53:54;14.33;;;12.83;;
11151;SDS011;5630;49.342;10.802;2023-04-20T06:56:20;14.40;;;12.80;;
11151;SDS011;5630;49.342;10.802;2023-04-20T06:58:45;15.57;;;12.80;;
11151;SDS011;5630;49.342;10.802;2023-04-20T07:01:11;16.07;;;14.07;;
11151;SDS011;5630;49.342;10.802;2023-04-20T07:03:37;15.40;;;13.03;;
11151;SDS011;5630;49.342;10.802;2023-04-20T07:06:02;16.77;;;14.20;;
11151;SDS011;5630;49.342;10.802;2023-04-20T07:08:28;22.53;;;13.87;;
11151;SDS011;5630;49.342;10.802;2023-04-20T07:10:54;19.67;;;14.00;;
11151;SDS011;5630;49.342;10.802;2023-04-20T07:13:20;17.97;;;14.87;;
11151;SDS011;5630;49.342;10.802;2023-04-20T07:15:45;17.67;;;14.23;;
11151;SDS011;5630;49.342;10.802;2023-04-20T07:18:11;18.50;;;14.10;;
11151;SDS011;5630;49.342;10.802;2023-04-20T07:20:36;17.90;;;15.43;;
11151;SDS011;5630;49.342;10.802;2023-04-20T07:23:02;18.27;;;15.03;;
11151;SDS011;5630;49.342;10.802;2023-04-20T07:25:27;16.53;;;14.30;;
11151;SDS011;5630;49.342;10.802;2023-04-20T07:27:55;16.13;;;14.37;;
11151;SDS011;5630;49.342;10.802;2023-04-20T07:30:21;15.73;;;14.13;;
11151;SDS011;5630;49.342;10.802;2023-04-20T07:32:47;16.43;;;13.47;;
11151;SDS011;5630;49.342;10.802;2023-04-20T07:35:13;15.13;;;13.53;;
11151;SDS011;5630;49.342;10.802;2023-04-20T07:37:39;15.13;;;13.20;;
11151;SDS011;5630;49.342;10.802;2023-04-20T07:40:05;15.43;;;12.77;;
11151;SDS011;5630;49.342;10.802;2023-04-20T07:42:32;14.43;;;12.73;;
11151;SDS011;5630;49.342;10.802;2023-04-20T07:44:58;19.43;;;13.70;;
11151;SDS011;5630;49.342;10.802;2023-04-20T07:47:24;14.67;;;12.20;;
11151;SDS011;5630;49.342;10.802;2023-04-20T07:49:50;14.90;;;12.57;;
11151;SDS011;5630;49.342;10.802;2023-04-20T07:52:15;13.13;;;11.17;;
11151;SDS011;5630;49.342;10.802;2023-04-20T07:54:42;14.80;;;12.57;;
11151;SDS011;5630;49.342;10.802;2023-04-20T07:57:11;14.17;;;12.17;;
11151;SDS011;5630;49.342;10.802;2023-04-20T07:59:37;13.57;;;11.33;;
11151;SDS011;5630;49.342;10.802;2023-04-20T08:02:04;13.23;;;11.73;;
11151;SDS011;5630;49.342;10.802;2023-04-20T08:04:30;14.43;;;11.83;;
11151;SDS011;5630;49.342;10.802;2023-04-20T08:06:56;12.97;;;10.70;;
11151;SDS011;5630;49.342;10.802;2023-04-20T08:09:21;11.90;;;10.47;;
11151;SDS011;5630;49.342;10.802;2023-04-20T08:11:47;13.13;;;10.43;;
11151;SDS011;5630;49.342;10.802;2023-04-20T08:14:13;13.00;;;10.27;;
11151;SDS011;5630;49.342;10.802;2023-04-20T08:16:39;12.27;;;10.87;;
11151;SDS011;5630;49.342;10.802;2023-04-20T08:19:05;14.00;;;10.50;;
11151;SDS011;5630;49.342;10.802;2023-04-20T08:21:37;13.33;;;10.50;;
11151;SDS011;5630;49.342;10.802;2023-04-20T08:24:04;8.57;;;7.27;;
11151;SDS011;5630;49.342;10.802;2023-04-20T08:26:31;14.63;;;10.87;;
11151;SDS011;5630;49.342;10.802;2023-04-20T08:28:57;11.27;;;10.07;;
11151;SDS011;5630;49.342;10.802;2023-04-20T08:31:23;16.07;;;10.33;;
11151;SDS011;5630;49.342;10.802;2023-04-20T08:33:49;13.17;;;10.93;;
11151;SDS011;5630;49.342;10.802;2023-04-20T08:36:14;12.67;;;9.87;;
11151;SDS011;5630;49.342;10.802;2023-04-20T08:38:40;12.30;;;9.13;;
11151;SDS011;5630;49.342;10.802;2023-04-20T08:41:05;12.67;;;9.00;;
11151;SDS011;5630;49.342;10.802;2023-04-20T08:43:31;10.70;;;9.60;;
11151;SDS011;5630;49.342;10.802;2023-04-20T08:45:57;10.50;;;9.50;;
11151;SDS011;5630;49.342;10.802;2023-04-20T08:48:25;11.90;;;8.97;;
11151;SDS011;5630;49.342;10.802;2023-04-20T08:51:01;9.03;;;8.07;;
11151;SDS011;5630;49.342;10.802;2023-04-20T08:53:27;9.27;;;7.77;;
11151;SDS011;5630;49.342;10.802;2023-04-20T08:55:53;11.33;;;8.10;;
11151;SDS011;5630;49.342;10.802;2023-04-20T08:58:22;9.73;;;7.83;;
11151;SDS011;5630;49.342;10.802;2023-04-20T09:00:48;8.97;;;7.80;;
11151;SDS011;5630;49.342;10.802;2023-04-20T09:03:14;11.37;;;7.13;;
11151;SDS011;5630;49.342;10.802;2023-04-20T09:05:40;8.53;;;7.67;;
11151;SDS011;5630;49.342;10.802;2023-04-20T09:08:08;8.77;;;7.60;;
11151;SDS011;5630;49.342;10.802;2023-04-20T09:10:40;13.53;;;7.47;;
11151;SDS011;5630;49.342;10.802;2023-04-20T09:13:08;10.13;;;7.73;;
11151;SDS011;5630;49.342;10.802;2023-04-20T09:15:44;7.67;;;6.80;;
11151;SDS011;5630;49.342;10.802;2023-04-20T09:18:13;7.00;;;6.30;;
11151;SDS011;5630;49.342;10.802;2023-04-20T09:20:39;9.13;;;6.70;;
11151;SDS011;5630;49.342;10.802;2023-04-20T09:23:12;7.93;;;6.70;;
11151;SDS011;5630;49.342;10.802;2023-04-20T09:25:42;6.90;;;6.03;;
11151;SDS011;5630;49.342;10.802;2023-04-20T09:28:10;9.53;;;6.13;;
11151;SDS011;5630;49.342;10.802;2023-04-20T09:30:47;7.30;;;6.47;;
11151;SDS011;5630;49.342;10.802;2023-04-20T09:33:14;9.40;;;6.60;;
11151;SDS011;5630;49.342;10.802;2023-04-20T09:35:41;9.03;;;6.47;;
11151;SDS011;5630;49.342;10.802;2023-04-20T09:38:07;7.90;;;7.00;;
11151;SDS011;5630;49.342;10.802;2023-04-20T09:40:34;8.57;;;6.80;;
11151;SDS011;5630;49.342;10.802;2023-04-20T09:43:08;9.80;;;6.40;;
11151;SDS011;5630;49.342;10.802;2023-04-20T09:45:43;7.83;;;7.03;;
11151;SDS011;5630;49.342;10.802;2023-04-20T09:48:09;9.40;;;7.30;;
11151;SDS011;5630;49.342;10.802;2023-04-20T09:50:36;8.90;;;7.23;;
11151;SDS011;5630;49.342;10.802;2023-04-20T09:53:05;7.83;;;7.03;;
11151;SDS011;5630;49.342;10.802;2023-04-20T09:55:31;10.40;;;7.60;;
11151;SDS011;5630;49.342;10.802;2023-04-20T09:57:57;7.80;;;7.00;;
11151;SDS011;5630;49.342;10.802;2023-04-20T10:00:25;8.13;;;7.27;;
11151;SDS011;5630;49.342;10.802;2023-04-20T10:02:51;8.90;;;6.87;;
11151;SDS011;5630;49.342;10.802;2023-04-20T10:05:17;9.80;;;8.10;;
11151;SDS011;5630;49.342;10.802;2023-04-20T10:07:42;8.57;;;7.03;;
11151;SDS011;5630;49.342;10.802;2023-04-20T10:10:09;7.83;;;6.93;;
11151;SDS011;5630;49.342;10.802;2023-04-20T10:12:54;8.57;;;7.60;;
11151;SDS011;5630;49.342;10.802;2023-04-20T10:15:35;11.27;;;7.77;;
11151;SDS011;5630;49.342;10.802;2023-04-20T10:18:02;11.87;;;8.13;;
11151;SDS011;5630;49.342;10.802;2023-04-20T10:20:38;8.27;;;7.10;;
11151;SDS011;5630;49.342;10.802;2023-04-20T10:23:07;8.80;;;7.90;;
11151;SDS011;5630;49.342;10.802;2023-04-20T10:25:34;9.10;;;8.03;;
11151;SDS011;5630;49.342;10.802;2023-04-20T10:28:01;9.33;;;7.50;;
11151;SDS011;5630;49.342;10.802;2023-04-20T10:30:31;9.07;;;7.67;;
11151;SDS011;5630;49.342;10.802;2023-04-20T10:33:07;8.17;;;7.13;;
11151;SDS011;5630;49.342;10.802;2023-04-20T10:35:43;9.27;;;8.10;;
11151;SDS011;5630;49.342;10.802;2023-04-20T10:38:11;8.77;;;7.87;;
11151;SDS011;5630;49.342;10.802;2023-04-20T10:40:37;9.80;;;7.67;;
11151;SDS011;5630;49.342;10.802;2023-04-20T10:43:03;9.43;;;8.37;;
11151;SDS011;5630;49.342;10.802;2023-04-20T10:45:32;10.93;;;7.40;;
11151;SDS011;5630;49.342;10.802;2023-04-20T10:48:05;8.13;;;7.00;;
11151;SDS011;5630;49.342;10.802;2023-04-20T10:50:34;7.93;;;7.13;;
11151;SDS011;5630;49.342;10.802;2023-04-20T10:53:00;10.97;;;7.93;;
11151;SDS011;5630;49.342;10.802;2023-04-20T10:55:27;11.53;;;7.57;;
11151;SDS011;5630;49.342;10.802;2023-04-20T10:57:53;10.23;;;8.07;;
11151;SDS011;5630;49.342;10.802;2023-04-20T11:00:20;8.53;;;7.57;;
11151;SDS011;5630;49.342;10.802;2023-04-20T11:02:50;9.70;;;6.93;;
11151;SDS011;5630;49.342;10.802;2023-04-20T11:05:18;7.37;;;6.50;;
11151;SDS011;5630;49.342;10.802;2023-04-20T11:07:50;5.43;;;4.90;;
11151;SDS011;5630;49.342;10.802;2023-04-20T11:10:20;7.93;;;7.07;;
11151;SDS011;5630;49.342;10.802;2023-04-20T11:12:47;8.40;;;7.27;;
11151;SDS011;5630;49.342;10.802;2023-04-20T11:15:12;10.57;;;7.70;;
11151;SDS011;5630;49.342;10.802;2023-04-20T11:17:38;9.70;;;7.87;;
11151;SDS011;5630;49.342;10.802;2023-04-20T11:22:33;9.30;;;8.00;;
11151;SDS011;5630;49.342;10.802;2023-04-20T11:25:05;10.80;;;8.53;;
11151;SDS011;5630;49.342;10.802;2023-04-20T11:27:33;9.20;;;7.97;;
11151;SDS011;5630;49.342;10.802;2023-04-20T11:29:59;9.30;;;8.30;;
11151;SDS011;5630;49.342;10.802;2023-04-20T11:32:30;8.40;;;7.57;;
11151;SDS011;5630;49.342;10.802;2023-04-20T11:35:09;10.77;;;8.47;;
11151;SDS011;5630;49.342;10.802;2023-04-20T11:37:53;10.43;;;8.50;;
11151;SDS011;5630;49.342;10.802;2023-04-20T11:40:21;12.37;;;8.13;;
11151;SDS011;5630;49.342;10.802;2023-04-20T11:42:47;10.13;;;8.80;;
11151;SDS011;5630;49.342;10.802;2023-04-20T11:45:12;12.33;;;8.90;;
11151;SDS011;5630;49.342;10.802;2023-04-20T11:47:38;9.40;;;8.43;;
11151;SDS011;5630;49.342;10.802;2023-04-20T11:50:05;10.20;;;8.63;;
11151;SDS011;5630;49.342;10.802;2023-04-20T11:52:31;9.37;;;8.03;;
11151;SDS011;5630;49.342;10.802;2023-04-20T11:54:57;9.03;;;8.07;;
11151;SDS011;5630;49.342;10.802;2023-04-20T11:57:22;9.80;;;7.90;;
11151;SDS011;5630;49.342;10.802;2023-04-20T11:59:49;8.97;;;8.03;;
11151;SDS011;5630;49.342;10.802;2023-04-20T12:02:15;9.17;;;7.33;;
11151;SDS011;5630;49.342;10.802;2023-04-20T12:04:40;12.13;;;7.63;;
11151;SDS011;5630;49.342;10.802;2023-04-20T12:07:06;9.37;;;7.73;;
11151;SDS011;5630;49.342;10.802;2023-04-20T12:09:32;8.70;;;7.80;;
11151;SDS011;5630;49.342;10.802;2023-04-20T12:12:01;10.63;;;8.50;;
11151;SDS011;5630;49.342;10.802;2023-04-20T12:14:27;8.80;;;7.90;;
11151;SDS011;5630;49.342;10.802;2023-04-20T12:16:53;9.80;;;8.30;;
11151;SDS011;5630;49.342;10.802;2023-04-20T12:19:18;12.37;;;8.23;;
11151;SDS011;5630;49.342;10.802;2023-04-20T12:21:44;10.23;;;8.40;;
11151;SDS011;5630;49.342;10.802;2023-04-20T12:24:11;8.87;;;7.33;;
11151;SDS011;5630;49.342;10.802;2023-04-20T12:26:37;9.97;;;7.03;;
11151;SDS011;5630;49.342;10.802;2023-04-20T12:29:03;9.13;;;7.07;;
11151;SDS011;5630;49.342;10.802;2023-04-20T12:31:28;11.93;;;7.47;;
11151;SDS011;5630;49.342;10.802;2023-04-20T12:33:54;8.23;;;7.27;;
11151;SDS011;5630;49.342;10.802;2023-04-20T12:36:20;7.30;;;6.60;;
11151;SDS011;5630;49.342;10.802;2023-04-20T12:38:46;8.20;;;6.77;;
11151;SDS011;5630;49.342;10.802;2023-04-20T12:41:14;7.07;;;6.37;;
11151;SDS011;5630;49.342;10.802;2023-04-20T12:43:40;6.30;;;5.70;;
11151;SDS011;5630;49.342;10.802;2023-04-20T12:46:06;6.83;;;6.10;;
11151;SDS011;5630;49.342;10.802;2023-04-20T12:48:31;8.13;;;6.13;;
11151;SDS011;5630;49.342;10.802;2023-04-20T12:50:57;10.00;;;6.80;;
11151;SDS011;5630;49.342;10.802;2023-04-20T12:53:23;8.97;;;6.00;;
11151;SDS011;5630;49.342;10.802;2023-04-20T12:55:48;8.43;;;7.13;;
11151;SDS011;5630;49.342;10.802;2023-04-20T12:58:14;7.03;;;6.17;;
11151;SDS011;5630;49.342;10.802;2023-04-20T13:00:40;7.07;;;5.70;;
11151;SDS011;5630;49.342;10.802;2023-04-20T13:03:07;5.33;;;4.83;;
11151;SDS011;5630;49.342;10.802;2023-04-20T13:05:33;7.77;;;5.93;;
11151;SDS011;5630;49.342;10.802;2023-04-20T13:07:59;5.80;;;5.20;;
11151;SDS011;5630;49.342;10.802;2023-04-20T13:10:24;6.83;;;5.87;;
11151;SDS011;5630;49.342;10.802;2023-04-20T13:12:50;7.73;;;6.00;;
11151;SDS011;5630;49.342;10.802;2023-04-20T13:15:16;7.40;;;5.80;;
11151;SDS011;5630;49.342;10.802;2023-04-20T13:17:44;5.90;;;5.30;;
11151;SDS011;5630;49.342;10.802;2023-04-20T13:20:10;5.60;;;5.00;;
11151;SDS011;5630;49.342;10.802;2023-04-20T13:22:36;5.53;;;5.03;;
11151;SDS011;5630;49.342;10.802;2023-04-20T13:25:03;5.80;;;5.20;;
11151;SDS011;5630;49.342;10.802;2023-04-20T13:27:30;6.07;;;5.40;;
11151;SDS011;5630;49.342;10.802;2023-04-20T13:29:56;7.50;;;5.03;;
11151;SDS011;5630;49.342;10.802;2023-04-20T13:32:23;5.73;;;5.23;;
11151;SDS011;5630;49.342;10.802;2023-04-20T13:34:50;5.93;;;5.33;;
11151;SDS011;5630;49.342;10.802;2023-04-20T13:37:15;6.03;;;5.20;;
11151;SDS011;5630;49.342;10.802;2023-04-20T13:39:41;6.30;;;5.70;;
11151;SDS011;5630;49.342;10.802;2023-04-20T13:42:07;7.30;;;5.60;;
11151;SDS011;5630;49.342;10.802;2023-04-20T13:44:33;6.57;;;5.97;;
11151;SDS011;5630;49.342;10.802;2023-04-20T13:46:59;6.63;;;6.03;;
11151;SDS011;5630;49.342;10.802;2023-04-20T13:49:25;7.80;;;5.80;;
11151;SDS011;5630;49.342;10.802;2023-04-20T13:51:50;6.87;;;6.27;;
11151;SDS011;5630;49.342;10.802;2023-04-20T13:54:16;6.87;;;6.17;;
11151;SDS011;5630;49.342;10.802;2023-04-20T13:56:42;6.23;;;5.53;;
11151;SDS011;5630;49.342;10.802;2023-04-20T13:59:07;7.67;;;6.90;;
11151;SDS011;5630;49.342;10.802;2023-04-20T14:01:33;8.47;;;7.20;;
11151;SDS011;5630;49.342;10.802;2023-04-20T14:03:58;8.10;;;7.30;;
11151;SDS011;5630;49.342;10.802;2023-04-20T14:06:24;7.60;;;6.87;;
11151;SDS011;5630;49.342;10.802;2023-04-20T14:08:50;6.20;;;5.60;;
11151;SDS011;5630;49.342;10.802;2023-04-20T14:11:16;5.10;;;4.37;;
11151;SDS011;5630;49.342;10.802;2023-04-20T14:13:41;9.73;;;7.33;;
11151;SDS011;5630;49.342;10.802;2023-04-20T14:16:08;7.93;;;7.10;;
11151;SDS011;5630;49.342;10.802;2023-04-20T14:18:35;8.17;;;7.37;;
11151;SDS011;5630;49.342;10.802;2023-04-20T14:21:01;8.17;;;7.47;;
11151;SDS011;5630;49.342;10.802;2023-04-20T14:23:26;9.30;;;8.40;;
11151;SDS011;5630;49.342;10.802;2023-04-20T14:25:52;9.80;;;8.83;;
11151;SDS011;5630;49.342;10.802;2023-04-20T14:28:17;11.40;;;10.20;;
11151;SDS011;5630;49.342;10.802;2023-04-20T14:30:43;15.70;;;14.03;;
11151;SDS011;5630;49.342;10.802;2023-04-20T14:33:09;9.93;;;8.93;;
11151;SDS011;5630;49.342;10.802;2023-04-20T14:35:35;10.43;;;8.17;;
11151;SDS011;5630;49.342;10.802;2023-04-20T14:38:01;8.67;;;7.87;;